sensor_id;sensor_type;location;lat;lon;timestamp;P1;P2;P0
70197;PMS5003;57582;-34.876;138.628;2023-03-31T00:02:19;1.27;1.27;0.43
70197;PMS5003;57582;-34.876;138.628;2023-03-31T00:05:20;1.57;1.57;1.13
70197;PMS5003;57582;-34.876;138.628;2023-03-31T00:08:19;1.87;1.70;0.83
70197;PMS5003;57582;-34.876;138.628;2023-03-31T00:11:20;1.43;1.43;0.77
70197;PMS5003;57582;-34.876;138.628;2023-03-31T00:14:19;1.07;1.07;0.53
70197;PMS5003;57582;-34.876;138.628;2023-03-31T00:17:19;0.70;0.70;0.57
70197;PMS5003;57582;-34.876;138.628;2023-03-31T00:20:19;1.27;0.80;0.53
70197;PMS5003;57582;-34.876;138.628;2023-03-31T00:23:19;2.93;2.30;1.40
70197;PMS5003;57582;-34.876;138.628;2023-03-31T00:26:19;1.53;1.53;1.10
70197;PMS5003;57582;-34.876;138.628;2023-03-31T00:29:19;2.60;2.60;1.30
70197;PMS5003;57582;-34.876;138.628;2023-03-31T00:32:19;2.03;1.83;1.23
70197;PMS5003;57582;-34.876;138.628;2023-03-31T00:35:19;2.10;2.10;1.13
70197;PMS5003;57582;-34.876;138.628;2023-03-31T00:38:19;2.13;1.60;0.57
70197;PMS5003;57582;-34.876;138.628;2023-03-31T00:41:20;3.70;2.50;1.27
70197;PMS5003;57582;-34.876;138.628;2023-03-31T00:44:21;3.57;1.50;0.90
70197;PMS5003;57582;-34.876;138.628;2023-03-31T00:47:19;1.27;1.03;0.70
70197;PMS5003;57582;-34.876;138.628;2023-03-31T00:50:22;2.47;1.20;0.67
70197;PMS5003;57582;-34.876;138.628;2023-03-31T00:53:24;3.43;2.10;1.50
70197;PMS5003;57582;-34.876;138.628;2023-03-31T00:56:19;4.23;3.13;1.17
70197;PMS5003;57582;-34.876;138.628;2023-03-31T00:59:22;2.53;2.53;1.10
70197;PMS5003;57582;-34.876;138.628;2023-03-31T01:02:19;6.07;5.03;2.87
70197;PMS5003;57582;-34.876;138.628;2023-03-31T01:05:22;3.43;2.00;1.07
70197;PMS5003;57582;-34.876;138.628;2023-03-31T01:08:22;3.07;3.07;1.93
70197;PMS5003;57582;-34.876;138.628;2023-03-31T01:11:22;3.27;1.93;1.40
70197;PMS5003;57582;-34.876;138.628;2023-03-31T01:14:19;3.57;2.70;1.77
70197;PMS5003;57582;-34.876;138.628;2023-03-31T01:17:20;2.73;2.73;1.10
70197;PMS5003;57582;-34.876;138.628;2023-03-31T01:26:35;4.23;3.50;2.50
70197;PMS5003;57582;-34.876;138.628;2023-03-31T01:47:24;2.17;1.80;1.00
70197;PMS5003;57582;-34.876;138.628;2023-03-31T01:53:24;1.03;1.03;0.33
70197;PMS5003;57582;-34.876;138.628;2023-03-31T01:59:27;4.00;2.33;1.03
70197;PMS5003;57582;-34.876;138.628;2023-03-31T02:02:27;3.30;1.37;1.00
70197;PMS5003;57582;-34.876;138.628;2023-03-31T02:05:24;1.63;1.53;1.03
70197;PMS5003;57582;-34.876;138.628;2023-03-31T02:08:25;0.90;0.90;0.23
70197;PMS5003;57582;-34.876;138.628;2023-03-31T02:11:20;0.17;0.17;0.07
70197;PMS5003;57582;-34.876;138.628;2023-03-31T02:14:22;0.10;0.10;0.00
70197;PMS5003;57582;-34.876;138.628;2023-03-31T02:17:23;0.23;0.00;0.00
70197;PMS5003;57582;-34.876;138.628;2023-03-31T02:20:21;0.47;0.37;0.00
70197;PMS5003;57582;-34.876;138.628;2023-03-31T02:23:22;0.03;0.03;0.00
70197;PMS5003;57582;-34.876;138.628;2023-03-31T02:26:24;0.70;0.13;0.00
70197;PMS5003;57582;-34.876;138.628;2023-03-31T02:29:20;0.43;0.43;0.00
70197;PMS5003;57582;-34.876;138.628;2023-03-31T02:32:26;0.00;0.00;0.00
70197;PMS5003;57582;-34.876;138.628;2023-03-31T02:35:20;0.00;0.00;0.00
70197;PMS5003;57582;-34.876;138.628;2023-03-31T02:38:19;1.70;0.47;0.00
70197;PMS5003;57582;-34.876;138.628;2023-03-31T02:41:20;0.30;0.00;0.00
70197;PMS5003;57582;-34.876;138.628;2023-03-31T02:44:20;0.00;0.00;0.00
70197;PMS5003;57582;-34.876;138.628;2023-03-31T02:47:20;0.00;0.00;0.00
70197;PMS5003;57582;-34.876;138.628;2023-03-31T02:50:23;0.00;0.00;0.00
70197;PMS5003;57582;-34.876;138.628;2023-03-31T02:53:33;0.00;0.00;0.00
70197;PMS5003;57582;-34.876;138.628;2023-03-31T02:59:32;0.33;0.10;0.00
70197;PMS5003;57582;-34.876;138.628;2023-03-31T03:08:25;0.10;0.10;0.00
70197;PMS5003;57582;-34.876;138.628;2023-03-31T03:11:26;0.13;0.13;0.00
70197;PMS5003;57582;-34.876;138.628;2023-03-31T03:14:30;0.10;0.10;0.00
70197;PMS5003;57582;-34.876;138.628;2023-03-31T03:17:22;0.00;0.00;0.00
70197;PMS5003;57582;-34.876;138.628;2023-03-31T03:20:20;0.33;0.00;0.00
70197;PMS5003;57582;-34.876;138.628;2023-03-31T03:23:19;0.60;0.00;0.00
70197;PMS5003;57582;-34.876;138.628;2023-03-31T03:26:20;0.83;0.00;0.00
70197;PMS5003;57582;-34.876;138.628;2023-03-31T03:29:20;0.57;0.00;0.00
70197;PMS5003;57582;-34.876;138.628;2023-03-31T03:32:19;0.00;0.00;0.00
70197;PMS5003;57582;-34.876;138.628;2023-03-31T03:35:19;1.57;0.60;0.00
70197;PMS5003;57582;-34.876;138.628;2023-03-31T03:38:19;0.00;0.00;0.00
70197;PMS5003;57582;-34.876;138.628;2023-03-31T03:41:20;1.13;0.00;0.00
70197;PMS5003;57582;-34.876;138.628;2023-03-31T03:44:19;0.00;0.00;0.00
70197;PMS5003;57582;-34.876;138.628;2023-03-31T03:47:19;0.00;0.00;0.00
70197;PMS5003;57582;-34.876;138.628;2023-03-31T03:50:19;0.00;0.00;0.00
70197;PMS5003;57582;-34.876;138.628;2023-03-31T03:53:20;0.00;0.00;0.00
70197;PMS5003;57582;-34.876;138.628;2023-03-31T03:56:19;0.27;0.27;0.00
70197;PMS5003;57582;-34.876;138.628;2023-03-31T03:59:19;0.00;0.00;0.00
70197;PMS5003;57582;-34.876;138.628;2023-03-31T04:02:19;0.50;0.07;0.00
70197;PMS5003;57582;-34.876;138.628;2023-03-31T04:05:20;0.20;0.10;0.00
70197;PMS5003;57582;-34.876;138.628;2023-03-31T04:08:19;0.00;0.00;0.00
70197;PMS5003;57582;-34.876;138.628;2023-03-31T04:11:19;0.00;0.00;0.00
70197;PMS5003;57582;-34.876;138.628;2023-03-31T04:14:19;0.50;0.00;0.00
70197;PMS5003;57582;-34.876;138.628;2023-03-31T04:17:20;0.00;0.00;0.00
70197;PMS5003;57582;-34.876;138.628;2023-03-31T04:20:20;0.73;0.00;0.00
70197;PMS5003;57582;-34.876;138.628;2023-03-31T04:23:21;0.00;0.00;0.00
70197;PMS5003;57582;-34.876;138.628;2023-03-31T04:26:19;0.00;0.00;0.00
70197;PMS5003;57582;-34.876;138.628;2023-03-31T04:29:20;0.03;0.03;0.00
70197;PMS5003;57582;-34.876;138.628;2023-03-31T04:32:20;0.00;0.00;0.00
70197;PMS5003;57582;-34.876;138.628;2023-03-31T04:35:21;0.90;0.63;0.53
70197;PMS5003;57582;-34.876;138.628;2023-03-31T04:38:21;1.27;0.53;0.53
70197;PMS5003;57582;-34.876;138.628;2023-03-31T04:41:21;0.50;0.00;0.00
70197;PMS5003;57582;-34.876;138.628;2023-03-31T04:44:19;0.10;0.10;0.00
70197;PMS5003;57582;-34.876;138.628;2023-03-31T04:47:19;0.73;0.00;0.00
70197;PMS5003;57582;-34.876;138.628;2023-03-31T04:50:19;0.07;0.07;0.03
70197;PMS5003;57582;-34.876;138.628;2023-03-31T04:53:20;0.00;0.00;0.00
70197;PMS5003;57582;-34.876;138.628;2023-03-31T04:56:20;0.00;0.00;0.00
70197;PMS5003;57582;-34.876;138.628;2023-03-31T04:59:19;0.00;0.00;0.00
70197;PMS5003;57582;-34.876;138.628;2023-03-31T05:02:20;0.00;0.00;0.00
70197;PMS5003;57582;-34.876;138.628;2023-03-31T05:05:20;0.80;0.03;0.00
70197;PMS5003;57582;-34.876;138.628;2023-03-31T05:08:19;0.03;0.03;0.00
70197;PMS5003;57582;-34.876;138.628;2023-03-31T05:11:20;0.00;0.00;0.00
70197;PMS5003;57582;-34.876;138.628;2023-03-31T05:14:19;0.00;0.00;0.00
70197;PMS5003;57582;-34.876;138.628;2023-03-31T05:17:20;0.00;0.00;0.00
70197;PMS5003;57582;-34.876;138.628;2023-03-31T05:20:20;0.37;0.00;0.00
70197;PMS5003;57582;-34.876;138.628;2023-03-31T05:23:19;0.07;0.07;0.00
70197;PMS5003;57582;-34.876;138.628;2023-03-31T05:26:20;0.57;0.13;0.00
70197;PMS5003;57582;-34.876;138.628;2023-03-31T05:29:21;0.43;0.00;0.00
70197;PMS5003;57582;-34.876;138.628;2023-03-31T05:32:19;0.23;0.00;0.00
70197;PMS5003;57582;-34.876;138.628;2023-03-31T05:35:19;0.50;0.03;0.00
70197;PMS5003;57582;-34.876;138.628;2023-03-31T05:38:19;0.33;0.00;0.00
70197;PMS5003;57582;-34.876;138.628;2023-03-31T05:41:20;0.73;0.00;0.00
70197;PMS5003;57582;-34.876;138.628;2023-03-31T05:44:19;1.80;0.30;0.00
70197;PMS5003;57582;-34.876;138.628;2023-03-31T05:47:19;0.40;0.03;0.00
70197;PMS5003;57582;-34.876;138.628;2023-03-31T05:50:20;0.77;0.10;0.00
70197;PMS5003;57582;-34.876;138.628;2023-03-31T05:53:20;0.00;0.00;0.00
70197;PMS5003;57582;-34.876;138.628;2023-03-31T05:56:19;0.07;0.00;0.00
70197;PMS5003;57582;-34.876;138.628;2023-03-31T05:59:19;0.63;0.13;0.00
70197;PMS5003;57582;-34.876;138.628;2023-03-31T06:02:20;0.83;0.47;0.00
70197;PMS5003;57582;-34.876;138.628;2023-03-31T06:05:20;0.10;0.10;0.00
70197;PMS5003;57582;-34.876;138.628;2023-03-31T06:08:19;1.37;0.00;0.00
70197;PMS5003;57582;-34.876;138.628;2023-03-31T06:11:21;0.77;0.00;0.00
70197;PMS5003;57582;-34.876;138.628;2023-03-31T06:14:20;0.60;0.47;0.00
70197;PMS5003;57582;-34.876;138.628;2023-03-31T06:17:20;0.00;0.00;0.00
70197;PMS5003;57582;-34.876;138.628;2023-03-31T06:20:19;0.63;0.10;0.00
70197;PMS5003;57582;-34.876;138.628;2023-03-31T06:23:21;0.13;0.00;0.00
70197;PMS5003;57582;-34.876;138.628;2023-03-31T06:26:19;1.17;0.47;0.00
70197;PMS5003;57582;-34.876;138.628;2023-03-31T06:29:20;0.00;0.00;0.00
70197;PMS5003;57582;-34.876;138.628;2023-03-31T06:32:19;0.00;0.00;0.00
70197;PMS5003;57582;-34.876;138.628;2023-03-31T06:35:19;0.40;0.40;0.37
70197;PMS5003;57582;-34.876;138.628;2023-03-31T06:38:19;1.63;1.63;0.47
70197;PMS5003;57582;-34.876;138.628;2023-03-31T06:41:20;0.17;0.17;0.00
70197;PMS5003;57582;-34.876;138.628;2023-03-31T06:44:19;0.37;0.00;0.00
70197;PMS5003;57582;-34.876;138.628;2023-03-31T06:47:20;0.00;0.00;0.00
70197;PMS5003;57582;-34.876;138.628;2023-03-31T06:50:19;0.00;0.00;0.00
70197;PMS5003;57582;-34.876;138.628;2023-03-31T06:53:21;0.20;0.00;0.00
70197;PMS5003;57582;-34.876;138.628;2023-03-31T06:56:19;0.00;0.00;0.00
70197;PMS5003;57582;-34.876;138.628;2023-03-31T06:59:19;0.27;0.27;0.00
70197;PMS5003;57582;-34.876;138.628;2023-03-31T07:02:20;0.60;0.00;0.00
70197;PMS5003;57582;-34.876;138.628;2023-03-31T07:05:21;0.00;0.00;0.00
70197;PMS5003;57582;-34.876;138.628;2023-03-31T07:08:20;0.57;0.00;0.00
70197;PMS5003;57582;-34.876;138.628;2023-03-31T07:11:20;0.37;0.07;0.00
70197;PMS5003;57582;-34.876;138.628;2023-03-31T07:14:19;0.53;0.53;0.00
70197;PMS5003;57582;-34.876;138.628;2023-03-31T07:17:20;0.03;0.00;0.00
70197;PMS5003;57582;-34.876;138.628;2023-03-31T07:20:19;0.03;0.03;0.00
70197;PMS5003;57582;-34.876;138.628;2023-03-31T07:23:20;0.33;0.00;0.00
70197;PMS5003;57582;-34.876;138.628;2023-03-31T07:26:19;0.20;0.00;0.00
70197;PMS5003;57582;-34.876;138.628;2023-03-31T07:29:20;0.47;0.00;0.00
70197;PMS5003;57582;-34.876;138.628;2023-03-31T07:32:19;0.63;0.63;0.00
70197;PMS5003;57582;-34.876;138.628;2023-03-31T07:35:20;0.10;0.10;0.00
70197;PMS5003;57582;-34.876;138.628;2023-03-31T07:38:19;0.57;0.00;0.00
70197;PMS5003;57582;-34.876;138.628;2023-03-31T07:41:21;0.37;0.20;0.00
70197;PMS5003;57582;-34.876;138.628;2023-03-31T07:44:20;0.57;0.40;0.00
70197;PMS5003;57582;-34.876;138.628;2023-03-31T07:47:20;0.00;0.00;0.00
70197;PMS5003;57582;-34.876;138.628;2023-03-31T07:50:21;0.40;0.40;0.00
70197;PMS5003;57582;-34.876;138.628;2023-03-31T07:53:20;0.00;0.00;0.00
70197;PMS5003;57582;-34.876;138.628;2023-03-31T07:56:23;0.00;0.00;0.00
70197;PMS5003;57582;-34.876;138.628;2023-03-31T07:59:20;1.27;0.57;0.00
70197;PMS5003;57582;-34.876;138.628;2023-03-31T08:02:20;0.00;0.00;0.00
70197;PMS5003;57582;-34.876;138.628;2023-03-31T08:05:20;0.00;0.00;0.00
70197;PMS5003;57582;-34.876;138.628;2023-03-31T08:08:20;0.10;0.10;0.00
70197;PMS5003;57582;-34.876;138.628;2023-03-31T08:11:20;0.00;0.00;0.00
70197;PMS5003;57582;-34.876;138.628;2023-03-31T08:14:20;0.33;0.33;0.00
70197;PMS5003;57582;-34.876;138.628;2023-03-31T08:17:20;1.80;0.67;0.00
70197;PMS5003;57582;-34.876;138.628;2023-03-31T08:20:20;1.23;0.20;0.00
70197;PMS5003;57582;-34.876;138.628;2023-03-31T08:23:20;0.03;0.03;0.00
70197;PMS5003;57582;-34.876;138.628;2023-03-31T08:26:20;0.77;0.43;0.00
70197;PMS5003;57582;-34.876;138.628;2023-03-31T08:29:20;0.77;0.07;0.00
70197;PMS5003;57582;-34.876;138.628;2023-03-31T08:32:22;0.43;0.33;0.00
70197;PMS5003;57582;-34.876;138.628;2023-03-31T08:35:20;0.83;0.10;0.00
70197;PMS5003;57582;-34.876;138.628;2023-03-31T08:38:20;0.10;0.10;0.00
70197;PMS5003;57582;-34.876;138.628;2023-03-31T08:47:22;1.23;1.00;0.00
70197;PMS5003;57582;-34.876;138.628;2023-03-31T08:50:23;1.10;0.97;0.00
70197;PMS5003;57582;-34.876;138.628;2023-03-31T08:53:27;1.13;0.60;0.00
70197;PMS5003;57582;-34.876;138.628;2023-03-31T08:56:22;0.43;0.30;0.00
70197;PMS5003;57582;-34.876;138.628;2023-03-31T08:59:35;0.87;0.33;0.00
70197;PMS5003;57582;-34.876;138.628;2023-03-31T09:02:26;1.20;0.77;0.00
70197;PMS5003;57582;-34.876;138.628;2023-03-31T09:05:30;0.30;0.30;0.00
70197;PMS5003;57582;-34.876;138.628;2023-03-31T09:08:32;0.40;0.00;0.00
70197;PMS5003;57582;-34.876;138.628;2023-03-31T09:17:25;0.10;0.10;0.00
70197;PMS5003;57582;-34.876;138.628;2023-03-31T09:20:29;0.30;0.30;0.00
70197;PMS5003;57582;-34.876;138.628;2023-03-31T09:26:28;0.43;0.00;0.00
70197;PMS5003;57582;-34.876;138.628;2023-03-31T09:29:39;0.27;0.27;0.00
70197;PMS5003;57582;-34.876;138.628;2023-03-31T09:32:22;0.37;0.37;0.00
70197;PMS5003;57582;-34.876;138.628;2023-03-31T09:35:22;0.00;0.00;0.00
70197;PMS5003;57582;-34.876;138.628;2023-03-31T09:38:20;0.27;0.27;0.00
70197;PMS5003;57582;-34.876;138.628;2023-03-31T09:41:21;0.60;0.27;0.00
70197;PMS5003;57582;-34.876;138.628;2023-03-31T09:47:31;0.20;0.20;0.00
70197;PMS5003;57582;-34.876;138.628;2023-03-31T09:50:21;1.47;1.47;0.97
70197;PMS5003;57582;-34.876;138.628;2023-03-31T09:53:30;2.40;1.43;0.00
70197;PMS5003;57582;-34.876;138.628;2023-03-31T09:56:46;0.67;0.37;0.00
70197;PMS5003;57582;-34.876;138.628;2023-03-31T09:59:22;1.73;0.13;0.00
70197;PMS5003;57582;-34.876;138.628;2023-03-31T10:02:34;0.87;0.73;0.00
70197;PMS5003;57582;-34.876;138.628;2023-03-31T10:11:21;0.63;0.63;0.00
70197;PMS5003;57582;-34.876;138.628;2023-03-31T10:14:24;0.27;0.27;0.00
70197;PMS5003;57582;-34.876;138.628;2023-03-31T10:17:23;0.70;0.00;0.00
70197;PMS5003;57582;-34.876;138.628;2023-03-31T10:23:30;0.40;0.37;0.00
70197;PMS5003;57582;-34.876;138.628;2023-03-31T10:26:25;0.77;0.23;0.13
70197;PMS5003;57582;-34.876;138.628;2023-03-31T10:29:27;0.90;0.00;0.00
70197;PMS5003;57582;-34.876;138.628;2023-03-31T10:38:26;1.07;0.40;0.00
70197;PMS5003;57582;-34.876;138.628;2023-03-31T10:41:24;1.03;0.10;0.00
70197;PMS5003;57582;-34.876;138.628;2023-03-31T10:47:20;0.67;0.67;0.00
70197;PMS5003;57582;-34.876;138.628;2023-03-31T10:50:28;0.57;0.17;0.00
70197;PMS5003;57582;-34.876;138.628;2023-03-31T10:53:22;0.73;0.73;0.00
70197;PMS5003;57582;-34.876;138.628;2023-03-31T10:56:34;0.87;0.87;0.20
70197;PMS5003;57582;-34.876;138.628;2023-03-31T11:05:26;0.40;0.40;0.00
70197;PMS5003;57582;-34.876;138.628;2023-03-31T11:17:26;0.90;0.00;0.00
70197;PMS5003;57582;-34.876;138.628;2023-03-31T11:35:35;1.17;0.50;0.17
70197;PMS5003;57582;-34.876;138.628;2023-03-31T11:44:22;0.67;0.27;0.00
70197;PMS5003;57582;-34.876;138.628;2023-03-31T11:47:24;0.00;0.00;0.00
70197;PMS5003;57582;-34.876;138.628;2023-03-31T11:50:26;0.27;0.27;0.00
70197;PMS5003;57582;-34.876;138.628;2023-03-31T11:53:27;2.27;1.07;0.07
70197;PMS5003;57582;-34.876;138.628;2023-03-31T11:56:21;0.33;0.33;0.03
70197;PMS5003;57582;-34.876;138.628;2023-03-31T11:59:21;0.00;0.00;0.00
70197;PMS5003;57582;-34.876;138.628;2023-03-31T12:02:28;5.63;3.57;0.93
70197;PMS5003;57582;-34.876;138.628;2023-03-31T12:05:23;2.27;1.90;0.77
70197;PMS5003;57582;-34.876;138.628;2023-03-31T12:08:34;2.40;0.77;0.07
70197;PMS5003;57582;-34.876;138.628;2023-03-31T12:11:35;0.83;0.33;0.07
70197;PMS5003;57582;-34.876;138.628;2023-03-31T12:14:26;0.00;0.00;0.00
70197;PMS5003;57582;-34.876;138.628;2023-03-31T12:17:25;0.70;0.00;0.00
70197;PMS5003;57582;-34.876;138.628;2023-03-31T12:20:32;0.20;0.00;0.00
70197;PMS5003;57582;-34.876;138.628;2023-03-31T12:23:23;0.00;0.00;0.00
70197;PMS5003;57582;-34.876;138.628;2023-03-31T12:32:23;1.40;0.00;0.00
70197;PMS5003;57582;-34.876;138.628;2023-03-31T12:35:28;0.40;0.00;0.00
70197;PMS5003;57582;-34.876;138.628;2023-03-31T12:38:41;0.57;0.10;0.00
70197;PMS5003;57582;-34.876;138.628;2023-03-31T12:44:34;0.63;0.17;0.00
70197;PMS5003;57582;-34.876;138.628;2023-03-31T12:50:26;0.10;0.10;0.00
70197;PMS5003;57582;-34.876;138.628;2023-03-31T12:56:20;0.73;0.30;0.00
70197;PMS5003;57582;-34.876;138.628;2023-03-31T12:59:30;2.13;1.10;0.30
70197;PMS5003;57582;-34.876;138.628;2023-03-31T13:02:24;4.87;2.50;1.00
70197;PMS5003;57582;-34.876;138.628;2023-03-31T13:11:33;2.00;1.47;0.47
70197;PMS5003;57582;-34.876;138.628;2023-03-31T13:14:23;0.97;0.03;0.00
70197;PMS5003;57582;-34.876;138.628;2023-03-31T13:17:30;0.00;0.00;0.00
70197;PMS5003;57582;-34.876;138.628;2023-03-31T13:20:39;0.87;0.17;0.00
70197;PMS5003;57582;-34.876;138.628;2023-03-31T13:23:22;0.23;0.00;0.00
70197;PMS5003;57582;-34.876;138.628;2023-03-31T13:29:24;0.20;0.20;0.00
70197;PMS5003;57582;-34.876;138.628;2023-03-31T13:32:21;0.63;0.00;0.00
70197;PMS5003;57582;-34.876;138.628;2023-03-31T13:35:25;0.20;0.10;0.00
70197;PMS5003;57582;-34.876;138.628;2023-03-31T13:38:31;1.17;0.00;0.00
70197;PMS5003;57582;-34.876;138.628;2023-03-31T13:53:25;0.90;0.40;0.00
70197;PMS5003;57582;-34.876;138.628;2023-03-31T13:59:43;0.33;0.00;0.00
70197;PMS5003;57582;-34.876;138.628;2023-03-31T14:02:42;0.00;0.00;0.00
70197;PMS5003;57582;-34.876;138.628;2023-03-31T14:11:24;0.80;0.50;0.00
70197;PMS5003;57582;-34.876;138.628;2023-03-31T14:14:20;1.23;0.23;0.00
70197;PMS5003;57582;-34.876;138.628;2023-03-31T14:17:25;2.17;1.10;0.33
70197;PMS5003;57582;-34.876;138.628;2023-03-31T14:26:35;0.33;0.33;0.20
70197;PMS5003;57582;-34.876;138.628;2023-03-31T14:29:24;1.73;0.73;0.00
70197;PMS5003;57582;-34.876;138.628;2023-03-31T14:35:30;0.90;0.47;0.17
70197;PMS5003;57582;-34.876;138.628;2023-03-31T14:38:21;1.53;0.70;0.00
70197;PMS5003;57582;-34.876;138.628;2023-03-31T14:41:21;0.30;0.30;0.00
70197;PMS5003;57582;-34.876;138.628;2023-03-31T14:44:20;1.37;0.27;0.00
70197;PMS5003;57582;-34.876;138.628;2023-03-31T14:47:22;0.80;0.80;0.00
70197;PMS5003;57582;-34.876;138.628;2023-03-31T14:50:21;0.10;0.10;0.00
70197;PMS5003;57582;-34.876;138.628;2023-03-31T14:53:23;0.10;0.10;0.00
70197;PMS5003;57582;-34.876;138.628;2023-03-31T14:56:25;0.60;0.60;0.10
70197;PMS5003;57582;-34.876;138.628;2023-03-31T14:59:25;0.50;0.00;0.00
70197;PMS5003;57582;-34.876;138.628;2023-03-31T15:02:31;0.17;0.17;0.00
70197;PMS5003;57582;-34.876;138.628;2023-03-31T15:08:21;1.77;0.30;0.00
70197;PMS5003;57582;-34.876;138.628;2023-03-31T15:11:20;0.70;0.70;0.00
70197;PMS5003;57582;-34.876;138.628;2023-03-31T15:14:20;1.77;0.10;0.00
70197;PMS5003;57582;-34.876;138.628;2023-03-31T15:17:27;0.87;0.43;0.00
70197;PMS5003;57582;-34.876;138.628;2023-03-31T15:20:29;0.33;0.23;0.00
70197;PMS5003;57582;-34.876;138.628;2023-03-31T15:26:24;1.00;0.30;0.00
70197;PMS5003;57582;-34.876;138.628;2023-03-31T15:29:30;0.00;0.00;0.00
70197;PMS5003;57582;-34.876;138.628;2023-03-31T15:32:30;0.80;0.00;0.00
70197;PMS5003;57582;-34.876;138.628;2023-03-31T15:35:24;1.90;0.00;0.00
70197;PMS5003;57582;-34.876;138.628;2023-03-31T15:38:22;0.63;0.00;0.00
70197;PMS5003;57582;-34.876;138.628;2023-03-31T15:41:21;2.20;0.40;0.00
70197;PMS5003;57582;-34.876;138.628;2023-03-31T15:44:45;3.07;2.47;1.00
70197;PMS5003;57582;-34.876;138.628;2023-03-31T15:47:28;1.73;0.27;0.00
70197;PMS5003;57582;-34.876;138.628;2023-03-31T15:50:22;0.83;0.00;0.00
70197;PMS5003;57582;-34.876;138.628;2023-03-31T15:53:34;1.37;0.70;0.00
70197;PMS5003;57582;-34.876;138.628;2023-03-31T15:56:33;1.10;0.83;0.00
70197;PMS5003;57582;-34.876;138.628;2023-03-31T15:59:22;1.80;1.03;0.00
70197;PMS5003;57582;-34.876;138.628;2023-03-31T16:02:24;1.97;0.87;0.00
70197;PMS5003;57582;-34.876;138.628;2023-03-31T16:08:28;2.57;1.73;0.13
70197;PMS5003;57582;-34.876;138.628;2023-03-31T16:11:24;2.03;1.40;0.40
70197;PMS5003;57582;-34.876;138.628;2023-03-31T16:14:24;0.30;0.30;0.00
70197;PMS5003;57582;-34.876;138.628;2023-03-31T16:17:26;1.50;1.40;0.00
70197;PMS5003;57582;-34.876;138.628;2023-03-31T16:20:25;0.80;0.80;0.00
70197;PMS5003;57582;-34.876;138.628;2023-03-31T16:23:24;1.10;1.00;0.00
70197;PMS5003;57582;-34.876;138.628;2023-03-31T16:26:23;1.27;0.60;0.00
70197;PMS5003;57582;-34.876;138.628;2023-03-31T16:29:22;1.50;0.73;0.00
70197;PMS5003;57582;-34.876;138.628;2023-03-31T16:32:20;2.70;1.53;0.40
70197;PMS5003;57582;-34.876;138.628;2023-03-31T16:35:20;1.80;0.47;0.10
70197;PMS5003;57582;-34.876;138.628;2023-03-31T16:38:22;0.63;0.60;0.13
70197;PMS5003;57582;-34.876;138.628;2023-03-31T16:41:21;1.37;0.60;0.00
70197;PMS5003;57582;-34.876;138.628;2023-03-31T16:44:21;1.73;0.50;0.00
70197;PMS5003;57582;-34.876;138.628;2023-03-31T16:47:21;0.23;0.10;0.00
70197;PMS5003;57582;-34.876;138.628;2023-03-31T16:50:20;1.87;0.73;0.00
70197;PMS5003;57582;-34.876;138.628;2023-03-31T16:53:23;2.10;0.00;0.00
70197;PMS5003;57582;-34.876;138.628;2023-03-31T16:56:20;0.83;0.10;0.00
70197;PMS5003;57582;-34.876;138.628;2023-03-31T16:59:20;1.90;0.83;0.23
70197;PMS5003;57582;-34.876;138.628;2023-03-31T17:02:20;0.80;0.33;0.00
70197;PMS5003;57582;-34.876;138.628;2023-03-31T17:05:21;1.13;0.83;0.00
70197;PMS5003;57582;-34.876;138.628;2023-03-31T17:08:23;1.30;0.83;0.00
70197;PMS5003;57582;-34.876;138.628;2023-03-31T17:11:20;1.07;0.93;0.03
70197;PMS5003;57582;-34.876;138.628;2023-03-31T17:14:20;1.83;1.20;0.07
70197;PMS5003;57582;-34.876;138.628;2023-03-31T17:17:21;2.43;2.27;0.00
70197;PMS5003;57582;-34.876;138.628;2023-03-31T17:20:21;1.77;0.60;0.00
70197;PMS5003;57582;-34.876;138.628;2023-03-31T17:23:21;3.93;0.00;0.00
70197;PMS5003;57582;-34.876;138.628;2023-03-31T17:26:21;1.03;0.23;0.00
70197;PMS5003;57582;-34.876;138.628;2023-03-31T17:29:21;0.33;0.33;0.13
70197;PMS5003;57582;-34.876;138.628;2023-03-31T17:32:21;0.33;0.33;0.00
70197;PMS5003;57582;-34.876;138.628;2023-03-31T17:35:21;0.13;0.13;0.00
70197;PMS5003;57582;-34.876;138.628;2023-03-31T17:38:20;1.73;1.00;0.00
70197;PMS5003;57582;-34.876;138.628;2023-03-31T17:41:21;0.97;0.63;0.00
70197;PMS5003;57582;-34.876;138.628;2023-03-31T17:44:20;0.90;0.37;0.03
70197;PMS5003;57582;-34.876;138.628;2023-03-31T17:47:20;1.90;0.50;0.00
70197;PMS5003;57582;-34.876;138.628;2023-03-31T17:50:21;0.70;0.40;0.10
70197;PMS5003;57582;-34.876;138.628;2023-03-31T17:53:21;0.40;0.40;0.00
70197;PMS5003;57582;-34.876;138.628;2023-03-31T17:56:20;1.63;0.23;0.00
70197;PMS5003;57582;-34.876;138.628;2023-03-31T17:59:21;1.40;0.00;0.00
70197;PMS5003;57582;-34.876;138.628;2023-03-31T18:02:21;1.73;0.87;0.00
70197;PMS5003;57582;-34.876;138.628;2023-03-31T18:05:22;0.20;0.00;0.00
70197;PMS5003;57582;-34.876;138.628;2023-03-31T18:08:20;0.53;0.00;0.00
70197;PMS5003;57582;-34.876;138.628;2023-03-31T18:11:21;0.23;0.23;0.00
70197;PMS5003;57582;-34.876;138.628;2023-03-31T18:14:20;0.10;0.10;0.00
70197;PMS5003;57582;-34.876;138.628;2023-03-31T18:17:21;0.93;0.00;0.00
70197;PMS5003;57582;-34.876;138.628;2023-03-31T18:20:21;0.37;0.30;0.00
70197;PMS5003;57582;-34.876;138.628;2023-03-31T18:23:21;0.90;0.00;0.00
70197;PMS5003;57582;-34.876;138.628;2023-03-31T18:26:24;0.67;0.13;0.00
70197;PMS5003;57582;-34.876;138.628;2023-03-31T18:29:21;0.90;0.13;0.00
70197;PMS5003;57582;-34.876;138.628;2023-03-31T18:32:21;1.80;1.63;0.00
70197;PMS5003;57582;-34.876;138.628;2023-03-31T18:35:21;1.00;0.47;0.10
70197;PMS5003;57582;-34.876;138.628;2023-03-31T18:38:21;3.93;2.97;0.67
70197;PMS5003;57582;-34.876;138.628;2023-03-31T18:41:21;2.17;0.93;0.00
70197;PMS5003;57582;-34.876;138.628;2023-03-31T18:44:21;1.23;0.87;0.03
70197;PMS5003;57582;-34.876;138.628;2023-03-31T18:47:21;0.57;0.00;0.00
70197;PMS5003;57582;-34.876;138.628;2023-03-31T18:50:21;0.07;0.00;0.00
70197;PMS5003;57582;-34.876;138.628;2023-03-31T18:53:22;0.17;0.17;0.00
70197;PMS5003;57582;-34.876;138.628;2023-03-31T18:56:21;2.50;0.30;0.00
70197;PMS5003;57582;-34.876;138.628;2023-03-31T18:59:21;0.80;0.40;0.00
70197;PMS5003;57582;-34.876;138.628;2023-03-31T19:02:21;0.43;0.00;0.00
70197;PMS5003;57582;-34.876;138.628;2023-03-31T19:05:21;1.23;0.13;0.00
70197;PMS5003;57582;-34.876;138.628;2023-03-31T19:08:21;1.67;1.47;0.00
70197;PMS5003;57582;-34.876;138.628;2023-03-31T19:11:21;0.77;0.47;0.00
70197;PMS5003;57582;-34.876;138.628;2023-03-31T19:14:21;2.47;0.60;0.00
70197;PMS5003;57582;-34.876;138.628;2023-03-31T19:17:21;2.13;1.27;0.00
70197;PMS5003;57582;-34.876;138.628;2023-03-31T19:20:21;2.13;0.30;0.00
70197;PMS5003;57582;-34.876;138.628;2023-03-31T19:23:21;2.50;1.70;0.37
70197;PMS5003;57582;-34.876;138.628;2023-03-31T19:26:21;1.13;0.87;0.03
70197;PMS5003;57582;-34.876;138.628;2023-03-31T19:29:21;1.03;0.10;0.00
70197;PMS5003;57582;-34.876;138.628;2023-03-31T19:32:21;1.73;1.63;0.43
70197;PMS5003;57582;-34.876;138.628;2023-03-31T19:35:21;1.30;0.63;0.47
70197;PMS5003;57582;-34.876;138.628;2023-03-31T19:38:21;0.33;0.00;0.00
70197;PMS5003;57582;-34.876;138.628;2023-03-31T19:41:21;1.03;0.50;0.00
70197;PMS5003;57582;-34.876;138.628;2023-03-31T19:44:21;1.20;0.57;0.47